EZY45TL EGPH-EGGD
Flight info
| Callsign | EZY45TL |
|---|---|
| Flight time | N/A |
| Altitude | 33000 |
| Route | GOSAM P600 FENIK L612 NAVSO DCT ADZOP DCT EGTOC DCT NOKIN N862 KARNO/N0444F320 DCT ALHUP DCT LUCSA N862 WEVBE |
| Aircraft | A20N/M-SDE2E3FGHIRWXY/LB1 |
Departure
| Time | 2026-04-26 16:17 |
|---|---|
| Airport | Edinburgh Airport (EGPH) |
Arrival
| Time | N/A |
|---|---|
| Airport | Bristol Airport (EGGD) |
| Time | Latitude | Longitude | Altitude | Speed | Heading |
|---|---|---|---|---|---|
| 2026-04-26 15:52 | 55.94845 | -3.36908 | 103 ft | 0 kts | 239° |
| 2026-04-26 16:05 | 55.94849 | -3.36897 | 103 ft | 2 kts | 239° |
| 2026-04-26 16:06 | 55.94857 | -3.36874 | 103 ft | 2 kts | 239° |
| 2026-04-26 16:06 | 55.94865 | -3.36851 | 103 ft | 2 kts | 245° |
| 2026-04-26 16:06 | 55.94867 | -3.36825 | 103 ft | 2 kts | 279° |
| 2026-04-26 16:06 | 55.94862 | -3.36800 | 103 ft | 2 kts | 308° |
| 2026-04-26 16:07 | 55.94850 | -3.36783 | 103 ft | 2 kts | 336° |
| 2026-04-26 16:07 | 55.94839 | -3.36777 | 104 ft | 0 kts | 357° |
| 2026-04-26 16:07 | 55.94832 | -3.36778 | 104 ft | 0 kts | 1° |
| 2026-04-26 16:09 | 55.94837 | -3.36778 | 104 ft | 2 kts | 0° |
| 2026-04-26 16:09 | 55.94864 | -3.36781 | 103 ft | 5 kts | 351° |
| 2026-04-26 16:10 | 55.94906 | -3.36813 | 102 ft | 8 kts | 334° |
| 2026-04-26 16:10 | 55.94920 | -3.36903 | 102 ft | 9 kts | 253° |
| 2026-04-26 16:10 | 55.94887 | -3.37007 | 102 ft | 10 kts | 237° |
| 2026-04-26 16:10 | 55.94851 | -3.37112 | 103 ft | 10 kts | 239° |
| 2026-04-26 16:11 | 55.94814 | -3.37222 | 103 ft | 10 kts | 240° |
| 2026-04-26 16:11 | 55.94773 | -3.37349 | 103 ft | 12 kts | 240° |
| 2026-04-26 16:11 | 55.94725 | -3.37493 | 103 ft | 15 kts | 240° |
| 2026-04-26 16:11 | 55.94667 | -3.37669 | 104 ft | 17 kts | 240° |
| 2026-04-26 16:12 | 55.94600 | -3.37862 | 106 ft | 19 kts | 237° |
| 2026-04-26 16:12 | 55.94530 | -3.38065 | 109 ft | 19 kts | 239° |
| 2026-04-26 16:12 | 55.94378 | -3.38516 | 113 ft | 22 kts | 240° |
| 2026-04-26 16:13 | 55.94301 | -3.38748 | 116 ft | 20 kts | 239° |
| 2026-04-26 16:13 | 55.94296 | -3.38763 | 116 ft | 0 kts | 239° |
| 2026-04-26 16:14 | 55.94291 | -3.38779 | 116 ft | 2 kts | 239° |
| 2026-04-26 16:14 | 55.94294 | -3.38872 | 117 ft | 11 kts | 313° |
| 2026-04-26 16:15 | 55.94327 | -3.38907 | 116 ft | 0 kts | 335° |
| 2026-04-26 16:15 | 55.94335 | -3.38915 | 116 ft | 4 kts | 333° |
| 2026-04-26 16:16 | 55.94454 | -3.38864 | 114 ft | 0 kts | 57° |
| 2026-04-26 16:16 | 55.94467 | -3.38831 | 113 ft | 21 kts | 57° |
| 2026-04-26 16:17 | 55.94700 | -3.38137 | 107 ft | 105 kts | 59° |
| 2026-04-26 16:17 | 55.95185 | -3.36688 | 114 ft | 166 kts | 59° |
| 2026-04-26 16:17 | 55.95778 | -3.34921 | 825 ft | 166 kts | 54° |
| 2026-04-26 16:17 | 55.96541 | -3.33386 | 1514 ft | 173 kts | 42° |
| 2026-04-26 16:18 | 55.97453 | -3.31960 | 2201 ft | 183 kts | 39° |
| 2026-04-26 16:18 | 55.99529 | -3.28700 | 3384 ft | 218 kts | 32° |
| 2026-04-26 16:19 | 56.02474 | -3.29138 | 4542 ft | 238 kts | 311° |
| 2026-04-26 16:19 | 56.03223 | -3.31638 | 4961 ft | 235 kts | 278° |
| 2026-04-26 16:19 | 56.02902 | -3.36532 | 5383 ft | 250 kts | 256° |
| 2026-04-26 16:20 | 56.02275 | -3.40593 | 5795 ft | 257 kts | 255° |
| 2026-04-26 16:20 | 56.01331 | -3.46788 | 7416 ft | 264 kts | 256° |
| 2026-04-26 16:20 | 56.00895 | -3.49877 | 8344 ft | 267 kts | 256° |
| 2026-04-26 16:21 | 56.00437 | -3.53134 | 8904 ft | 284 kts | 256° |
| 2026-04-26 16:21 | 55.99955 | -3.56548 | 9390 ft | 301 kts | 256° |
| 2026-04-26 16:21 | 55.99440 | -3.60178 | 9956 ft | 314 kts | 256° |
| 2026-04-26 16:21 | 55.98917 | -3.63841 | 10803 ft | 317 kts | 256° |
| 2026-04-26 16:22 | 55.98374 | -3.67639 | 11657 ft | 320 kts | 255° |
| 2026-04-26 16:22 | 55.97828 | -3.71447 | 12439 ft | 324 kts | 256° |
| 2026-04-26 16:22 | 55.97277 | -3.75274 | 13174 ft | 328 kts | 256° |
| 2026-04-26 16:22 | 55.96725 | -3.79094 | 13892 ft | 332 kts | 256° |
| 2026-04-26 16:23 | 55.96157 | -3.83024 | 14631 ft | 336 kts | 256° |
| 2026-04-26 16:23 | 55.95569 | -3.87073 | 15231 ft | 344 kts | 256° |
| 2026-04-26 16:23 | 55.95010 | -3.90917 | 15494 ft | 359 kts | 256° |
| 2026-04-26 16:23 | 55.94437 | -3.94854 | 15759 ft | 372 kts | 256° |